Chapel Hill, TN

9:34 AM CDT on April 30, 2017 (GMT -0500)
Chapel Hill | | Change Station

Elev 696 ft 35.61 °N, 86.70 °W | Updated 14 minutes ago

Mostly Cloudy
Mostly Cloudy
75.8 °F
Feels Like 77 °F
N
9.0
Wind Variable Wind from SE
Gusts 17.0 mph

Today
High -- | Low -- °F
--% Chance of Precip.
Yesterday
High -- | Low -- °F
Precip. -- in
Pressure 29.64 in
Visibility 10.0 miles
Clouds Scattered Clouds 3700 ft
Overcast 4800 ft
Heat Index 77 °F
Dew Point 67 °F
Humidity 74%
Rainfall 0.00 in
Snow Depth Not available.
5:55 AM 7:32 PM
Waxing Crescent, 23% visible
METAR KMQY 301356Z 17009KT 10SM SCT037 OVC048 24/19 A2998 RMK AO2 SLP037 T02390189
Pressure 29.64 in
Visibility 10.0 miles
Clouds Scattered Clouds 3700 ft
Overcast 4800 ft
Heat Index 77 °F
Dew Point 67 °F
Humidity 74%
Rainfall 0.00 in
Snow Depth Not available.
5:55 AM 7:32 PM
Waxing Crescent, 23% visible
METAR KMQY 301356Z 17009KT 10SM SCT037 OVC048 24/19 A2998 RMK AO2 SLP037 T02390189

Get Severe Weather Alerts

Thanks for signing up!

Be on the lookout for a verification email in your inbox.

You'll start receiving the daily forecast at 8 AM.

×

10-Day Weather Forecast

Almanac

Astronomy

Apr. 30, 2017 Rise Set
Actual Time
Civil Twilight
Nautical Twilight
Astronomical Twilight
Moon
Length of Visible Light
Length of Day
Tomorrow will be .
, % of the Moon is Illuminated

Today's Extremes

State Highs State Lows

Community

WunderPhotos

WunderBlog® & News

Nearby

Air Quality

  Air Quality AQ Index Pollutant
Not available.

Snow Depth

Station Depth Elevation

Earthquake Activity

City Distance Mag. Time & Date
Minimum magnitude displayed is 2.5.

Coastal Water Temperatures

Place Temperature

Stations

Nearby Weather Stations

Station Location Temp. Windchill Dew Point Humidity Wind Precip. Elev Updated Type
                   

Watches & Warnings

There are currently no watches in effect.